Time;durP1;ratioP1;P1;durP2;ratioP2;P2;SDS_P1;SDS_P2;PMS_P1;PMS_P2;Temp;Humidity;BMP_temperature;BMP_pressure;BME280_temperature;BME280_humidity;BME280_pressure;Samples;Min_cycle;Max_cycle;Signal;HPM_P1;HPM_P2
2022/04/01 00:01:51;;;;;;;8.18;6.05;;;;;;;0.74;100.00;66863.78;5087070;28;20074;-76
2022/04/01 00:04:17;;;;;;;8.02;6.35;;;;;;;0.74;100.00;66866.41;5070454;28;20064;-77
2022/04/01 00:06:43;;;;;;;10.10;6.07;;;;;;;0.77;100.00;66867.72;5086355;28;20096;-78
2022/04/01 00:09:08;;;;;;;4.57;4.07;;;;;;;0.71;100.00;66860.41;5084928;28;20499;-76
2022/04/01 00:11:33;;;;;;;5.57;4.88;;;;;;;0.73;100.00;66867.91;5082467;28;20150;-77
2022/04/01 00:13:59;;;;;;;7.82;5.18;;;;;;;0.73;100.00;66863.22;5087041;28;20495;-77
2022/04/01 00:16:24;;;;;;;7.05;5.20;;;;;;;0.75;100.00;66867.50;5084158;28;20130;-78
2022/04/01 00:18:49;;;;;;;5.00;3.80;;;;;;;0.72;100.00;66861.53;5091193;28;20074;-75
2022/04/01 00:21:15;;;;;;;6.35;5.20;;;;;;;0.77;100.00;66870.31;5085438;28;20044;-79
2022/04/01 00:23:40;;;;;;;6.32;5.13;;;;;;;0.75;100.00;66868.09;5084961;28;20048;-78
2022/04/01 00:26:05;;;;;;;6.30;5.05;;;;;;;0.78;100.00;66865.66;5086403;28;20036;-76
2022/04/01 00:28:31;;;;;;;6.43;4.30;;;;;;;0.74;100.00;66866.41;5066774;28;20045;-76
2022/04/01 00:30:56;;;;;;;7.50;4.95;;;;;;;0.73;100.00;66862.66;5092092;28;20086;-76
2022/04/01 00:33:21;;;;;;;6.18;5.05;;;;;;;0.78;100.00;66871.47;5083094;28;20047;-76
2022/04/01 00:35:47;;;;;;;7.95;5.60;;;;;;;0.78;100.00;66868.28;5087577;28;20063;-79
2022/04/01 00:38:12;;;;;;;6.55;5.47;;;;;;;0.80;100.00;66873.69;5086790;28;20036;-75
2022/04/01 00:40:39;;;;;;;7.80;5.20;;;;;;;0.74;100.00;66864.34;5063272;28;20391;-76
2022/04/01 00:43:05;;;;;;;5.85;4.53;;;;;;;0.73;100.00;66862.66;5084635;28;20039;-76
2022/04/01 00:45:31;;;;;;;6.95;4.97;;;;;;;0.74;100.00;66866.41;5085288;28;20147;-76
2022/04/01 00:48:01;;;;;;;6.38;5.13;;;;;;;0.78;100.00;66870.91;5085874;28;20047;-77
2022/04/01 00:50:31;;;;;;;5.53;4.47;;;;;;;0.74;100.00;66871.63;5082187;28;20044;-76
2022/04/01 00:52:57;;;;;;;7.13;4.85;;;;;;;0.73;100.00;66865.28;5089205;28;20044;-76
2022/04/01 00:55:23;;;;;;;7.57;5.40;;;;;;;0.78;100.00;66868.84;5084239;28;20054;-76
2022/04/01 00:57:48;;;;;;;6.57;4.50;;;;;;;0.78;100.00;66868.28;5086944;28;20121;-75
2022/04/01 01:00:14;;;;;;;5.90;4.95;;;;;;;0.74;100.00;66869.00;5087060;28;20043;-77
2022/04/01 01:02:40;;;;;;;7.15;5.47;;;;;;;0.77;100.00;66867.16;5090988;28;20100;-77
2022/04/01 01:05:05;;;;;;;7.50;4.95;;;;;;;0.80;100.00;66878.38;5086560;28;20039;-75
2022/04/01 01:07:31;;;;;;;6.45;4.82;;;;;;;0.70;100.00;66861.91;5086334;28;20044;-77
2022/04/01 01:09:57;;;;;;;7.18;5.03;;;;;;;0.72;100.00;66858.91;5087371;28;20031;-76
2022/04/01 01:12:25;;;;;;;7.70;5.20;;;;;;;0.70;100.00;66857.22;5089623;28;20036;-77
2022/04/01 01:14:50;;;;;;;6.47;4.78;;;;;;;0.67;100.00;66856.47;5070974;28;20525;-77
2022/04/01 01:17:16;;;;;;;6.32;5.10;;;;;;;0.66;100.00;66858.53;5087644;28;20044;-77
2022/04/01 01:19:45;;;;;;;8.15;5.80;;;;;;;0.63;100.00;66855.16;5089112;28;20461;-77
2022/04/01 01:22:13;;;;;;;6.32;4.82;;;;;;;0.57;100.00;66845.78;5070869;28;20048;-76
2022/04/01 01:24:41;;;;;;;7.65;6.32;;;;;;;0.60;100.00;66845.97;5088184;28;20032;-77
2022/04/01 01:27:08;;;;;;;5.43;3.97;;;;;;;0.56;100.00;66846.72;5088964;28;20083;-77
2022/04/01 01:29:37;;;;;;;7.25;6.25;;;;;;;0.53;100.00;66843.91;5087188;28;20483;-78
2022/04/01 01:32:04;;;;;;;7.15;6.28;;;;;;;0.54;100.00;66839.78;5089187;28;20047;-79
2022/04/01 01:34:34;;;;;;;7.82;6.25;;;;;;;0.51;100.00;66841.09;5088447;28;20410;-78
2022/04/01 01:37:01;;;;;;;7.10;5.82;;;;;;;0.44;100.00;66839.00;5088957;28;20036;-77
2022/04/01 01:39:27;;;;;;;7.65;6.22;;;;;;;0.45;100.00;66832.28;5089119;28;20035;-78
2022/04/01 01:41:53;;;;;;;8.65;5.53;;;;;;;0.44;100.00;66836.94;5089539;28;20042;-76
2022/04/01 01:44:22;;;;;;;7.93;7.13;;;;;;;0.43;100.00;66827.41;5070441;28;20132;-78
2022/04/01 01:46:49;;;;;;;8.55;7.07;;;;;;;0.40;100.00;66826.66;5080484;28;20063;-75
2022/04/01 01:49:15;;;;;;;8.52;6.93;;;;;;;0.40;100.00;66826.66;5089021;28;20136;-80
2022/04/01 01:54:44;;;;;;;8.50;7.30;;;;;;;0.37;100.00;66828.50;5088753;28;20552;-75
2022/04/01 01:57:24;;;;;;;8.48;7.60;;;;;;;0.38;100.00;66827.03;5086875;28;20047;-76
2022/04/01 01:59:51;;;;;;;9.45;6.93;;;;;;;0.33;100.00;66824.03;5078795;28;20517;-77
2022/04/01 02:02:18;;;;;;;9.25;7.95;;;;;;;0.36;100.00;66827.41;5088690;28;20048;-78
2022/04/01 02:04:45;;;;;;;8.80;7.90;;;;;;;0.31;100.00;66819.69;5070194;28;20097;-77
2022/04/01 02:07:12;;;;;;;9.55;8.55;;;;;;;0.31;100.00;66819.16;5088492;28;20118;-77
2022/04/01 02:09:40;;;;;;;10.48;7.32;;;;;;;0.32;100.00;66822.91;5087740;28;20043;-77
2022/04/01 02:12:06;;;;;;;10.05;8.80;;;;;;;0.31;100.00;66819.16;5088706;28;20147;-78
2022/04/01 02:14:32;;;;;;;9.98;8.20;;;;;;;0.30;100.00;66821.22;5086555;28;20058;-77
2022/04/01 02:16:57;;;;;;;8.65;7.25;;;;;;;0.29;100.00;66814.84;5087557;28;20143;-76
2022/04/01 02:19:23;;;;;;;9.68;8.68;;;;;;;;;;5087321;28;20040;-76
2022/04/01 02:21:51;;;;;;;9.80;8.18;;;;;;;0.26;100.00;66811.47;5078603;28;20453;-76
2022/04/01 02:24:19;;;;;;;9.35;7.45;;;;;;;0.24;100.00;66806.03;5088412;28;20156;-76
2022/04/01 02:26:47;;;;;;;9.75;8.75;;;;;;;0.27;100.00;66814.66;5103074;28;20043;-78
2022/04/01 02:29:13;;;;;;;10.33;8.90;;;;;;;0.21;100.00;66809.03;5086971;28;20043;-77
2022/04/01 02:31:39;;;;;;;9.35;8.40;;;;;;;0.19;100.00;66806.22;5087920;28;20429;-76
2022/04/01 02:34:04;;;;;;;7.55;6.32;;;;;;;0.15;100.00;66802.28;5087634;28;20039;-77
2022/04/01 02:36:29;;;;;;;9.70;8.70;;;;;;;0.20;100.00;66805.28;5086919;28;20040;-75
2022/04/01 02:38:55;;;;;;;9.55;8.45;;;;;;;0.19;100.00;66804.16;5088487;28;20077;-78
2022/04/01 02:41:21;;;;;;;10.82;8.30;;;;;;;0.21;100.00;66806.41;5087513;28;20113;-76
2022/04/01 02:43:47;;;;;;;10.20;8.05;;;;;;;0.22;100.00;66804.34;5087631;28;20290;-77
2022/04/01 02:46:13;;;;;;;10.57;8.63;;;;;;;0.24;100.00;66806.59;5087377;28;20044;-76
2022/04/01 02:48:38;;;;;;;10.50;8.48;;;;;;;0.19;100.00;66806.78;5085529;28;20546;-77
2022/04/01 02:51:03;;;;;;;9.95;8.90;;;;;;;0.18;100.00;66805.66;5088293;28;20403;-76
2022/04/01 02:53:29;;;;;;;12.23;9.00;;;;;;;0.17;100.00;66801.91;5069333;28;20036;-76
2022/04/01 02:55:55;;;;;;;10.73;8.70;;;;;;;0.18;100.00;66805.09;5087040;28;20056;-76
2022/04/01 02:58:20;;;;;;;9.43;7.57;;;;;;;0.15;100.00;66801.72;5087324;28;20044;-76
2022/04/01 03:00:46;;;;;;;8.02;6.30;;;;;;;0.14;100.00;66797.97;5087888;28;20040;-77
2022/04/01 03:03:12;;;;;;;9.57;8.57;;;;;;;0.15;100.00;66799.66;5080909;28;20044;-76
2022/04/01 03:05:39;;;;;;;10.73;7.47;;;;;;;0.11;100.00;66794.59;5086862;28;20495;-77
2022/04/01 03:08:05;;;;;;;10.38;8.50;;;;;;;0.13;100.00;66802.09;5088855;28;20111;-77
2022/04/01 03:10:32;;;;;;;10.02;8.40;;;;;;;0.09;100.00;66794.97;5086391;28;20131;-75
2022/04/01 03:12:57;;;;;;;10.25;9.25;;;;;;;;;;5082716;28;20115;-76
2022/04/01 03:15:24;;;;;;;10.13;8.25;;;;;;;0.07;100.00;66793.28;5087566;28;20156;-77
2022/04/01 03:17:49;;;;;;;10.00;8.70;;;;;;;0.07;100.00;66787.50;5086873;28;20032;-76
2022/04/01 03:20:15;;;;;;;11.82;9.23;;;;;;;0.07;100.00;66788.06;5089103;28;20050;-81
2022/04/01 03:22:42;;;;;;;9.93;8.65;;;;;;;0.06;100.00;66789.56;5070237;28;20081;-79
2022/04/01 03:25:15;;;;;;;9.65;8.20;;;;;;;0.05;100.00;66793.09;5068589;28;20036;-78
2022/04/01 03:27:40;;;;;;;9.27;6.97;;;;;;;0.04;100.00;66794.59;5084481;28;20063;-78
2022/04/01 03:30:10;;;;;;;8.75;7.50;;;;;;;0.05;100.00;66788.41;5087423;28;20063;-76
2022/04/01 03:32:37;;;;;;;9.35;7.93;;;;;;;0.03;100.00;66786.19;5065542;28;20399;-77
2022/04/01 03:35:07;;;;;;;8.85;7.95;;;;;;;0.03;100.00;66783.56;5083180;28;20032;-81
2022/04/01 03:37:33;;;;;;;9.63;7.88;;;;;;;-0.01;100.00;66779.06;5086665;28;20147;-78
2022/04/01 03:40:00;;;;;;;10.07;8.77;;;;;;;0.00;100.00;66785.41;5082377;28;20048;-79
2022/04/01 03:42:30;;;;;;;10.48;9.10;;;;;;;0.05;100.00;66788.41;5086291;28;20042;-76
2022/04/01 03:44:56;;;;;;;11.63;9.38;;;;;;;0.04;100.00;66787.28;5086639;28;20147;-76
2022/04/01 03:47:26;;;;;;;11.63;9.40;;;;;;;0.03;100.00;66783.56;5083898;28;20043;-78
2022/04/01 03:49:57;;;;;;;11.25;8.88;;;;;;;0.04;100.00;66784.69;5086244;28;20330;-79
2022/04/01 03:52:24;;;;;;;13.82;11.70;;;;;;;0.01;100.00;66783.91;5080752;28;20051;-77
2022/04/01 03:54:56;;;;;;;14.13;12.27;;;;;;;0.01;100.00;66783.38;5087031;28;20131;-77
2022/04/01 03:57:30;;;;;;;14.23;11.15;;;;;;;0.03;100.00;66785.59;5086762;28;20695;-76
2022/04/01 03:59:57;;;;;;;12.52;11.13;;;;;;;0.05;100.00;66788.41;5087095;28;20487;-77
2022/04/01 04:02:24;;;;;;;12.20;10.55;;;;;;;0.04;100.00;66784.13;5088178;28;20099;-77
2022/04/01 04:04:51;;;;;;;12.40;11.10;;;;;;;0.04;100.00;66789.91;5089006;28;20032;-76
2022/04/01 04:07:17;;;;;;;12.13;10.82;;;;;;;0.04;100.00;66791.97;5068911;28;20102;-78
2022/04/01 04:09:44;;;;;;;13.95;10.60;;;;;;;0.04;100.00;66789.34;5085984;28;20044;-76
2022/04/01 04:12:15;;;;;;;14.13;11.23;;;;;;;0.00;100.00;66785.41;5088911;28;20391;-78
2022/04/01 04:14:41;;;;;;;12.52;11.13;;;;;;;0.04;100.00;66787.28;5087408;28;20040;-77
2022/04/01 04:17:11;;;;;;;14.55;12.30;;;;;;;0.04;100.00;66789.91;5088872;28;20036;-77
2022/04/01 04:19:48;;;;;;;13.18;11.10;;;;;;;0.04;100.00;66789.91;5086760;28;20055;-76
2022/04/01 04:22:19;;;;;;;13.95;12.13;;;;;;;0.01;100.00;66786.53;5066110;28;20048;-77
2022/04/01 04:25:10;;;;;;;12.38;10.52;;;;;;;0.04;100.00;66795.16;5085427;28;20044;-77
2022/04/01 04:27:36;;;;;;;11.65;7.50;;;;;;;-0.05;100.00;66777.19;5084030;28;20064;-75
2022/04/01 04:30:08;;;;;;;13.90;12.05;;;;;;;0.00;100.00;66782.81;5076532;28;20036;-76
2022/04/01 04:32:46;;;;;;;12.05;10.80;;;;;;;0.04;100.00;66792.53;5082717;28;20139;-76
2022/04/01 04:35:11;;;;;;;12.97;11.10;;;;;;;0.00;100.00;66785.41;5085338;28;20435;-75
2022/04/01 04:37:45;;;;;;;12.73;10.57;;;;;;;0.03;100.00;66783.56;5082175;28;20101;-77
2022/04/01 04:40:14;;;;;;;13.35;10.05;;;;;;;0.03;100.00;66783.56;5085418;28;20039;-77
2022/04/01 04:42:45;;;;;;;12.82;11.30;;;;;;;0.03;100.00;66786.19;5087504;28;20052;-77
2022/04/01 04:45:12;;;;;;;15.70;11.25;;;;;;;0.04;100.00;66787.28;5087069;28;20694;-77
2022/04/01 04:47:38;;;;;;;12.45;10.52;;;;;;;;;;5086168;28;20055;-76
2022/04/01 04:50:03;;;;;;;10.93;9.52;;;;;;;-0.01;100.00;66784.28;5088470;28;20043;-76
2022/04/01 04:53:01;;;;;;;13.40;11.68;;;;;;;0.02;100.00;66785.03;5084677;28;20046;-76
2022/04/01 04:55:26;;;;;;;13.55;12.15;;;;;;;0.00;100.00;66782.81;5084707;28;20039;-76
2022/04/01 04:57:53;;;;;;;12.93;9.98;;;;;;;-0.02;100.00;66781.09;5086212;28;20051;-77
2022/04/01 05:00:19;;;;;;;13.70;12.27;;;;;;;-0.03;100.00;66776.78;5086716;28;20135;-77
2022/04/01 05:03:06;;;;;;;13.00;10.88;;;;;;;-0.05;100.00;66780.34;5086974;28;20106;-76
2022/04/01 05:05:49;;;;;;;13.80;12.30;;;;;;;-0.01;100.00;66782.22;5085968;28;20052;-76
2022/04/01 05:08:32;;;;;;;15.13;12.93;;;;;;;-0.01;100.00;66779.06;5087966;28;20514;-77
2022/04/01 05:11:37;;;;;;;12.60;10.90;;;;;;;-0.04;100.00;66775.69;5077758;28;20127;-76
2022/04/01 05:14:18;;;;;;;13.55;12.15;;;;;;;-0.05;100.00;66779.78;4973931;28;22011;-77
2022/04/01 05:17:00;;;;;;;17.10;13.15;;;;;;;-0.06;100.00;66776.03;5066293;28;20181;-77
2022/04/01 05:19:27;;;;;;;14.02;11.88;;;;;;;-0.03;100.00;66776.78;5083603;28;20497;-77
2022/04/01 05:22:05;;;;;;;14.52;11.65;;;;;;;-0.03;100.00;66782.03;5084857;28;20139;-77
2022/04/01 05:24:48;;;;;;;12.43;11.10;;;;;;;-0.12;100.00;66769.84;5083020;22;20518;-85
2022/04/01 05:30:38;;;;;;;12.35;9.57;;;;;;;-0.11;100.00;66775.66;5043484;28;20067;-85
2022/04/01 05:33:26;;;;;;;12.07;9.63;;;;;;;-0.10;100.00;66768.94;5045488;28;20049;-85
2022/04/01 05:35:53;;;;;;;10.45;7.82;;;;;;;-0.13;100.00;66771.34;5063027;28;20402;-85
2022/04/01 05:41:41;;;;;;;12.68;9.55;;;;;;;-0.11;100.00;66773.06;5060258;28;20051;-82
2022/04/01 05:44:09;;;;;;;11.73;9.35;;;;;;;-0.09;100.00;66772.66;5060600;28;20146;-85
2022/04/01 05:46:36;;;;;;;11.20;9.63;;;;;;;-0.11;100.00;66773.06;5058859;28;20131;-83
2022/04/01 05:49:03;;;;;;;12.77;9.73;;;;;;;-0.13;100.00;66776.03;5064296;28;20040;-85
2022/04/01 05:51:30;;;;;;;11.68;9.02;;;;;;;-0.17;100.00;66766.88;5063895;28;20047;-85
2022/04/01 05:53:56;;;;;;;11.70;10.50;;;;;;;-0.16;100.00;66765.38;5079070;28;20041;-84
2022/04/01 05:56:22;;;;;;;13.40;10.57;;;;;;;-0.15;100.00;66765.94;5054436;28;20045;-85
2022/04/01 05:58:48;;;;;;;11.52;10.07;;;;;;;-0.14;100.00;66769.69;5060194;28;20449;-84
2022/04/01 06:01:34;;;;;;;12.48;9.15;;;;;;;-0.16;100.00;66762.19;5078049;28;20419;-83
2022/04/01 06:04:08;;;;;;;11.57;10.38;;;;;;;-0.14;100.00;66767.06;5057247;28;20037;-83
2022/04/01 06:06:44;;;;;;;10.82;9.38;;;;;;;-0.16;100.00;66770.59;5056459;28;20045;-85
2022/04/01 06:09:15;;;;;;;13.00;10.25;;;;;;;-0.16;100.00;66770.03;5076846;28;20044;-83
2022/04/01 06:11:58;;;;;;;10.35;8.80;;;;;;;-0.15;100.00;66768.53;5062223;28;20153;-86
2022/04/01 06:14:59;;;;;;;12.10;9.85;;;;;;;-0.14;100.00;66767.63;5062618;28;20041;-82
2022/04/01 06:17:36;;;;;;;10.40;9.05;;;;;;;-0.10;100.00;66768.94;5047860;28;20044;-85
2022/04/01 06:20:07;;;;;;;11.65;9.75;;;;;;;-0.12;100.00;66766.69;5055438;28;20043;-85
2022/04/01 06:22:36;;;;;;;11.65;10.45;;;;;;;-0.09;100.00;66772.66;5056568;28;20050;-83
2022/04/01 06:25:02;;;;;;;12.02;9.80;;;;;;;-0.08;100.00;66782.22;5075059;28;20028;-86
2022/04/01 06:27:48;;;;;;;11.70;10.05;;;;;;;-0.07;100.00;66778.09;5067097;28;20102;-85
2022/04/01 06:30:15;;;;;;;10.85;8.82;;;;;;;-0.05;100.00;66779.78;5063935;28;20062;-85
2022/04/01 06:36:07;;;;;;;9.75;7.57;;;;;;;-0.03;100.00;66776.78;5065912;28;20132;-84
2022/04/01 06:38:54;;;;;;;11.77;7.95;;;;;;;0.02;100.00;66784.47;5061646;28;20056;-83
2022/04/01 06:41:23;;;;;;;9.48;7.75;;;;;;;-0.04;100.00;66783.53;5083411;28;20060;-84
2022/04/01 06:43:48;;;;;;;10.32;8.30;;;;;;;-0.01;100.00;66784.84;5065726;28;20595;-83
2022/04/01 06:46:20;;;;;;;9.00;6.75;;;;;;;0.02;100.00;66785.03;5083013;28;20035;-84
2022/04/01 06:48:45;;;;;;;9.55;7.55;;;;;;;0.03;100.00;66785.59;5060672;28;20051;-82
2022/04/01 06:51:11;;;;;;;11.20;7.20;;;;;;;0.02;100.00;66787.66;5067275;28;20032;-83
2022/04/01 06:53:37;;;;;;;8.73;7.72;;;;;;;0.07;100.00;66795.91;5063196;28;20043;-84
2022/04/01 06:56:03;;;;;;;10.70;7.95;;;;;;;0.06;100.00;66786.34;5062518;28;20126;-85
2022/04/01 06:58:30;;;;;;;8.90;8.00;;;;;;;0.05;100.00;66791.03;5083034;28;20052;-85
2022/04/01 07:00:56;;;;;;;12.05;7.90;;;;;;;0.06;100.00;66792.16;5065330;28;20054;-84
2022/04/01 07:03:22;;;;;;;8.95;7.18;;;;;;;0.04;100.00;66784.13;5082473;28;20040;-84
2022/04/01 07:05:48;;;;;;;8.32;7.47;;;;;;;0.05;100.00;66791.03;5082384;28;20046;-86
2022/04/01 07:08:16;;;;;;;8.70;7.50;;;;;;;0.04;100.00;66789.34;5063673;28;20040;-84
2022/04/01 07:10:42;;;;;;;10.82;7.32;;;;;;;0.02;100.00;66782.44;5063313;28;20133;-84
2022/04/01 07:13:10;;;;;;;11.30;6.97;;;;;;;0.05;100.00;66785.78;5081659;28;20066;-85
2022/04/01 07:15:35;;;;;;;10.60;6.72;;;;;;;0.08;100.00;66794.41;5064338;28;20040;-84
2022/04/01 07:18:02;;;;;;;9.68;7.15;;;;;;;0.13;100.00;66800.03;5066051;28;20050;-84
2022/04/01 07:20:27;;;;;;;8.65;6.70;;;;;;;0.10;100.00;66796.66;5059992;28;20039;-85
2022/04/01 07:22:53;;;;;;;8.70;5.60;;;;;;;0.13;100.00;66800.03;5081136;28;20048;-85
2022/04/01 07:25:19;;;;;;;10.27;7.28;;;;;;;0.16;100.00;66800.78;5066271;28;20450;-84
2022/04/01 07:27:44;;;;;;;8.05;6.55;;;;;;;0.17;100.00;66801.34;5066678;28;20131;-84
2022/04/01 07:30:10;;;;;;;8.05;6.10;;;;;;;0.21;100.00;66808.47;5066024;28;20042;-84
2022/04/01 07:32:37;;;;;;;10.05;6.38;;;;;;;0.21;100.00;66811.66;5064053;28;20506;-84
2022/04/01 07:35:07;;;;;;;8.40;6.75;;;;;;;0.21;100.00;66809.03;5070138;28;20059;-84
2022/04/01 07:37:33;;;;;;;8.30;6.63;;;;;;;0.25;100.00;66812.41;5064109;28;20047;-84
2022/04/01 07:39:59;;;;;;;6.22;5.32;;;;;;;0.12;100.00;66798.91;5087358;28;20490;-84
2022/04/01 07:42:26;;;;;;;8.13;5.88;;;;;;;0.21;100.00;66803.78;5066777;28;20052;-84
2022/04/01 07:44:52;;;;;;;8.02;6.28;;;;;;;0.24;100.00;66811.28;5070297;28;20044;-85
2022/04/01 07:47:19;;;;;;;7.47;5.20;;;;;;;0.28;100.00;66818.94;5065963;28;20056;-85
2022/04/01 07:49:48;;;;;;;7.20;5.90;;;;;;;0.26;100.00;66813.50;5067840;28;20048;-84
2022/04/01 07:52:14;;;;;;;;;;;;;;;0.32;100.00;66815.06;5072023;28;20067;-85
2022/04/01 07:54:42;;;;;;;8.43;5.75;;;;;;;0.27;100.00;66812.03;5072403;28;19962;-84
2022/04/01 07:57:08;;;;;;;7.82;5.32;;;;;;;0.27;100.00;66814.66;5067321;28;20040;-85
2022/04/01 07:59:35;;;;;;;8.20;4.82;;;;;;;0.24;100.00;66809.22;5067037;28;20388;-84
2022/04/01 08:02:01;;;;;;;9.50;5.60;;;;;;;0.27;100.00;66812.03;5087648;28;20059;-84
2022/04/01 08:04:27;;;;;;;6.75;5.35;;;;;;;0.26;100.00;66811.47;5067951;28;20078;-84
2022/04/01 08:06:53;;;;;;;5.90;4.20;;;;;;;0.25;100.00;66812.41;5069537;28;20054;-84
2022/04/01 08:09:18;;;;;;;6.43;4.88;;;;;;;0.31;100.00;66816.53;5089817;28;20031;-84
2022/04/01 08:11:44;;;;;;;6.38;5.00;;;;;;;0.25;100.00;66807.72;5072323;28;20070;-84
2022/04/01 08:14:09;;;;;;;7.53;4.72;;;;;;;0.28;100.00;66818.38;5088562;28;20490;-84
2022/04/01 08:16:35;;;;;;;5.93;4.63;;;;;;;0.35;100.00;66821.59;5072813;28;20071;-83
2022/04/01 08:19:00;;;;;;;7.68;4.90;;;;;;;0.38;100.00;66827.03;5089638;28;20085;-84
2022/04/01 08:21:26;;;;;;;7.50;4.63;;;;;;;0.39;100.00;66828.72;5089011;28;20044;-82
2022/04/01 08:23:52;;;;;;;6.75;4.38;;;;;;;0.38;100.00;66821.78;5071824;28;20102;-83
2022/04/01 08:26:17;;;;;;;6.55;4.20;;;;;;;0.38;100.00;66827.03;5070937;28;20089;-83
2022/04/01 08:28:43;;;;;;;5.95;3.92;;;;;;;0.42;100.00;66829.47;5086526;28;20322;-82
2022/04/01 08:31:09;;;;;;;6.30;4.60;;;;;;;0.49;100.00;66839.41;5088444;28;20635;-84
2022/04/01 08:33:35;;;;;;;5.60;3.92;;;;;;;0.51;100.00;66836.41;5069291;28;20598;-82
2022/04/01 08:36:01;;;;;;;7.75;4.90;;;;;;;0.51;100.00;66836.41;5070573;28;20048;-83
2022/04/01 08:38:27;;;;;;;6.53;5.38;;;;;;;0.53;100.00;66841.28;5084538;28;20123;-83
2022/04/01 08:40:52;;;;;;;7.60;5.35;;;;;;;0.62;100.00;66848.78;5087664;28;20048;-83
2022/04/01 08:43:30;;;;;;;10.18;4.57;;;;;;;0.65;100.00;66860.00;5086779;28;20039;-83
2022/04/01 08:46:00;;;;;;;6.82;5.00;;;;;;;0.68;100.00;66858.16;5068667;28;20040;-84
2022/04/01 08:48:27;;;;;;;7.70;5.13;;;;;;;0.70;100.00;66864.53;5088017;28;20074;-84
2022/04/01 08:50:53;;;;;;;7.88;5.50;;;;;;;;;;5066138;28;20077;-83
2022/04/01 08:53:18;;;;;;;8.18;5.53;;;;;;;0.75;100.00;66867.50;5088148;28;20048;-84
2022/04/01 08:55:50;;;;;;;8.40;5.78;;;;;;;0.81;100.00;66872.22;5084495;28;20047;-84
2022/04/01 08:58:19;;;;;;;10.73;5.43;;;;;;;0.74;100.00;66864.34;5067232;28;20048;-84
2022/04/01 09:00:46;;;;;;;8.40;6.10;;;;;;;0.81;100.00;66872.22;5082112;28;20039;-84
2022/04/01 09:03:14;;;;;;;8.00;5.25;;;;;;;0.86;100.00;66880.47;5069190;28;20046;-84
2022/04/01 09:05:46;;;;;;;10.90;6.70;;;;;;;0.87;100.00;66884.22;5065872;28;20040;-84
2022/04/01 09:08:14;;;;;;;10.00;7.72;;;;;;;0.88;100.00;66879.53;5068384;28;20610;-84
2022/04/01 09:10:52;;;;;;;7.57;6.07;;;;;;;0.94;100.00;66888.91;5082614;28;20140;-84
2022/04/01 09:20:06;;;;;;;7.50;6.10;;;;;;;0.95;100.00;66884.81;4995743;28;20052;-85
2022/04/01 09:22:32;;;;;;;6.75;5.38;;;;;;;0.93;100.00;66885.16;5032644;28;20132;-84
2022/04/01 09:25:03;;;;;;;7.78;6.72;;;;;;;1.02;100.00;66892.09;5051224;28;20056;-84
2022/04/01 09:27:41;;;;;;;6.95;5.45;;;;;;;1.07;100.00;66900.34;5038806;28;20079;-85
2022/04/01 09:30:09;;;;;;;9.15;6.05;;;;;;;1.09;100.00;66902.59;5049453;28;20072;-84
2022/04/01 09:32:47;;;;;;;8.52;6.10;;;;;;;1.02;100.00;66897.91;5037036;28;20074;-85
2022/04/01 09:35:13;;;;;;;8.50;6.20;;;;;;;1.07;100.00;66900.91;5024927;28;20457;-85
2022/04/01 09:37:44;;;;;;;9.80;5.97;;;;;;;1.16;100.00;66912.53;5026528;28;21333;-84
2022/04/01 09:40:11;;;;;;;7.45;5.88;;;;;;;1.16;100.00;66910.47;5027853;28;20135;-85
2022/04/01 09:42:38;;;;;;;11.18;6.53;;;;;;;1.19;100.00;66916.47;5025012;28;20056;-85
2022/04/01 09:45:06;;;;;;;7.15;6.45;;;;;;;1.19;100.00;66913.84;5029555;28;20120;-85
2022/04/01 09:47:36;;;;;;;8.67;6.17;;;;;;;1.17;100.00;66908.97;5041729;28;20095;-85
2022/04/01 09:50:09;;;;;;;9.10;6.50;;;;;;;1.18;100.00;66914.78;5064129;28;20044;-85
2022/04/01 09:52:36;;;;;;;8.50;6.47;;;;;;;1.06;100.00;66899.78;5065760;28;20063;-85
2022/04/01 09:55:02;;;;;;;6.88;5.95;;;;;;;1.13;100.00;66905.06;5065628;28;20044;-85
2022/04/01 09:57:28;;;;;;;6.25;4.45;;;;;;;1.15;100.00;66911.97;5078961;28;20446;-85
2022/04/01 09:59:54;;;;;;;9.32;7.25;;;;;;;1.23;100.00;66915.72;5085136;28;20044;-85
2022/04/01 10:02:20;;;;;;;10.95;6.80;;;;;;;1.26;100.00;66926.41;5066149;28;20814;-85
2022/04/01 10:04:46;;;;;;;7.80;6.57;;;;;;;1.22;100.00;66917.22;5070957;28;20129;-85
2022/04/01 10:07:12;;;;;;;8.90;6.30;;;;;;;1.28;100.00;66921.38;5085694;28;20036;-85
2022/04/01 10:10:06;;;;;;;7.78;6.20;;;;;;;1.39;100.00;66937.88;5066544;28;20040;-85
2022/04/01 10:12:38;;;;;;;7.68;6.70;;;;;;;1.41;100.00;66940.69;5065607;28;20104;-85
2022/04/01 10:15:07;;;;;;;7.88;6.65;;;;;;;1.48;100.00;66943.31;5062296;28;20040;-84
2022/04/01 10:17:37;;;;;;;7.35;6.38;;;;;;;1.52;100.00;66950.44;5082874;28;20047;-84
2022/04/01 10:20:04;;;;;;;7.97;6.80;;;;;;;1.60;100.00;66960.94;5066084;28;20044;-84
2022/04/01 10:22:29;;;;;;;8.80;7.43;;;;;;;1.55;100.00;66956.47;5061525;28;20058;-84
2022/04/01 10:25:07;;;;;;;8.55;6.93;;;;;;;1.62;100.00;66963.22;5065634;28;20488;-84
2022/04/01 10:27:40;;;;;;;8.18;7.07;;;;;;;1.53;100.00;66948.97;5081672;28;20071;-85
2022/04/01 10:30:13;;;;;;;8.93;7.35;;;;;;;1.64;100.00;66965.44;5083124;28;20044;-85
2022/04/01 10:32:41;;;;;;;8.38;7.40;;;;;;;1.74;100.00;66971.47;5067289;28;20044;-83
2022/04/01 10:35:09;;;;;;;9.63;7.32;;;;;;;1.78;100.00;66976.56;5081886;28;20049;-85
2022/04/01 10:37:35;;;;;;;8.75;7.10;;;;;;;;;;5082870;28;20323;-85
2022/04/01 10:40:08;;;;;;;9.50;7.28;;;;;;;1.74;100.00;66976.72;5083586;28;20128;-85
2022/04/01 10:42:38;;;;;;;9.27;7.40;;;;;;;1.67;100.00;66972.03;5066137;28;20048;-85
2022/04/01 10:45:21;;;;;;;9.57;6.95;;;;;;;1.78;100.00;66978.59;5079232;28;20060;-84
2022/04/01 10:53:37;;;;;;;8.43;6.90;;;;;;;1.76;100.00;66976.34;5085124;28;20075;-84
2022/04/01 10:56:21;;;;;;;7.90;6.03;;;;;;;1.73;100.00;66975.59;5053840;28;20040;-84
2022/04/01 10:59:06;;;;;;;9.57;6.78;;;;;;;1.74;100.00;66974.66;5085283;28;20043;-84
2022/04/01 11:01:34;;;;;;;10.20;7.10;;;;;;;1.84;100.00;66984.78;5059689;28;20060;-85
2022/04/01 11:07:23;;;;;;;7.90;6.80;;;;;;;1.90;99.96;66994.75;5064585;28;20090;-85
2022/04/01 11:10:04;;;;;;;8.98;6.88;;;;;;;1.99;100.00;66999.63;5084412;28;20063;-85
2022/04/01 11:12:32;;;;;;;10.15;7.03;;;;;;;1.89;99.51;66988.34;5076802;28;20426;-85
2022/04/01 11:15:12;;;;;;;8.77;6.40;;;;;;;1.97;99.66;67000.00;5063379;28;20055;-85
2022/04/01 11:17:37;;;;;;;8.82;6.15;;;;;;;1.95;98.53;66995.13;5080835;28;20048;-85
2022/04/01 11:20:18;;;;;;;8.30;5.70;;;;;;;1.90;96.24;66989.50;5067818;28;20411;-85
2022/04/01 11:22:53;;;;;;;8.13;5.72;;;;;;;1.83;95.77;66986.28;5071678;28;20066;-84
2022/04/01 11:25:33;;;;;;;7.53;5.25;;;;;;;2.00;96.68;67000.75;5095681;22;20051;-77
2022/04/01 11:27:58;;;;;;;7.93;5.60;;;;;;;2.16;95.64;67017.66;5070165;28;20043;-77
2022/04/01 11:30:40;;;;;;;6.72;4.13;;;;;;;2.15;92.99;67019.16;5072970;28;20040;-77
2022/04/01 11:33:08;;;;;;;8.25;5.90;;;;;;;2.26;93.09;67034.72;5060520;28;20044;-77
2022/04/01 11:35:39;;;;;;;8.63;5.93;;;;;;;2.27;92.16;67032.66;5088762;28;20101;-77
2022/04/01 11:38:06;;;;;;;7.85;5.63;;;;;;;;;;5056135;28;20051;-77
2022/04/01 11:40:35;;;;;;;8.40;6.13;;;;;;;2.31;92.05;67036.63;5072696;28;20119;-77
2022/04/01 11:43:02;;;;;;;5.97;4.75;;;;;;;2.33;93.00;67041.50;5089687;28;20063;-77
2022/04/01 11:45:35;;;;;;;9.05;6.03;;;;;;;2.35;93.42;67041.69;5089445;28;20044;-77
2022/04/01 11:48:02;;;;;;;7.68;5.30;;;;;;;2.28;92.79;67033.81;5090327;28;20075;-77
2022/04/01 11:50:27;;;;;;;8.93;6.25;;;;;;;2.23;93.56;67028.16;5090508;28;20550;-77
2022/04/01 11:52:57;;;;;;;6.53;4.90;;;;;;;2.22;93.32;67024.41;5072247;28;20068;-77
2022/04/01 11:55:24;;;;;;;7.80;4.93;;;;;;;2.20;92.83;67027.41;5089302;28;20048;-77
2022/04/01 11:57:52;;;;;;;8.80;5.95;;;;;;;2.23;94.03;67031.34;5087575;28;20044;-77
2022/04/01 12:00:20;;;;;;;8.43;6.03;;;;;;;2.13;94.07;67014.25;5071388;28;20032;-78
2022/04/01 12:02:51;;;;;;;8.95;6.85;;;;;;;2.00;95.38;67000.75;5089020;28;20040;-77
2022/04/01 12:05:16;;;;;;;9.38;6.20;;;;;;;;;;5088252;28;20036;-78
2022/04/01 12:13:50;;;;;;;8.88;6.47;;;;;;;1.93;100.00;66992.88;5068839;28;20572;-78
2022/04/01 12:16:16;;;;;;;10.85;7.45;;;;;;;1.97;100.00;66996.81;5052616;28;20042;-77